Time;durP1;ratioP1;P1;durP2;ratioP2;P2;SDS_P1;SDS_P2;PMS_P1;PMS_P2;Temp;Humidity;BMP_temperature;BMP_pressure;BME280_temperature;BME280_humidity;BME280_pressure;Samples;Min_cycle;Max_cycle;Signal;HPM_P1;HPM_P2
2022/12/29 00:01:03;;;;;;;5.45;3.97;;;;;;;;;;4879952;29;20404;-73
2022/12/29 00:03:29;;;;;;;7.43;4.20;;;;;;;;;;4896459;29;20067;-73
2022/12/29 00:05:58;;;;;;;6.22;4.20;;;;;;;;;;4880874;29;20052;-73
2022/12/29 00:08:39;;;;;;;7.05;4.68;;;;;;;;;;4897150;29;20494;-73
2022/12/29 00:11:08;;;;;;;7.53;4.47;;;;;;;;;;4895919;29;20096;-73
2022/12/29 00:16:19;;;;;;;5.47;4.47;;;;;;;;;;4897102;29;20425;-73
2022/12/29 00:18:45;;;;;;;6.10;4.78;;;;;;;;;;4880239;29;20064;-73
2022/12/29 00:35:08;;;;;;;6.75;4.32;;;;;;;;;;4884320;29;20057;-73
2022/12/29 00:45:50;;;;;;;6.10;4.30;;;;;;;;;;4883660;29;20057;-72
2022/12/29 00:49:29;;;;;;;5.47;4.22;;;;;;;;;;4901109;29;20068;-73
2022/12/29 00:51:02;;;;;;;5.65;4.25;;;;;;;;;;4900622;29;20056;-72
2022/12/29 00:53:28;;;;;;;6.90;4.20;;;;;;;;;;4884335;29;20063;-72
2022/12/29 00:55:54;;;;;;;5.75;4.32;;;;;;;;;;4899399;29;20052;-72
2022/12/29 00:58:20;;;;;;;6.10;3.90;;;;;;;;;;4901582;29;20406;-72
2022/12/29 01:00:46;;;;;;;5.30;3.63;;;;;;;;;;4901509;29;20049;-73
2022/12/29 01:03:12;;;;;;;5.60;3.97;;;;;;;;;;4884865;29;20056;-73
2022/12/29 01:05:38;;;;;;;5.85;3.75;;;;;;;;;;4906838;29;20052;-72
2022/12/29 01:08:04;;;;;;;4.95;4.00;;;;;;;;;;4915170;29;20044;-73
2022/12/29 01:10:30;;;;;;;4.70;3.75;;;;;;;;;;4898895;29;20064;-72
2022/12/29 01:12:56;;;;;;;5.60;4.10;;;;;;;;;;4918469;29;20087;-72
2022/12/29 01:15:22;;;;;;;5.22;3.95;;;;;;;;;;4916901;29;20060;-73
2022/12/29 01:17:48;;;;;;;5.90;4.15;;;;;;;;;;4891045;29;20566;-72
2022/12/29 01:20:14;;;;;;;5.13;3.85;;;;;;;;;;4884280;29;20393;-73
2022/12/29 01:22:42;;;;;;;5.25;3.85;;;;;;;;;;4882943;29;20786;-72
2022/12/29 01:25:08;;;;;;;5.30;4.18;;;;;;;;;;4882647;29;20545;-72
2022/12/29 01:27:34;;;;;;;6.53;3.97;;;;;;;;;;4884214;29;20135;-72
2022/12/29 01:30:02;;;;;;;6.43;3.65;;;;;;;;;;4884277;29;20080;-73
2022/12/29 01:32:28;;;;;;;4.32;3.50;;;;;;;;;;4884029;29;20056;-72
2022/12/29 01:34:54;;;;;;;5.20;4.25;;;;;;;;;;4900527;29;20120;-73
2022/12/29 01:37:20;;;;;;;5.93;3.70;;;;;;;;;;4900622;29;20115;-72
2022/12/29 01:39:46;;;;;;;6.15;4.40;;;;;;;;;;4868536;29;20053;-72
2022/12/29 01:42:17;;;;;;;5.05;3.80;;;;;;;;;;4872775;29;20405;-73
2022/12/29 01:44:52;;;;;;;5.68;3.90;;;;;;;;;;4916065;29;20453;-73
2022/12/29 01:47:38;;;;;;;6.00;3.90;;;;;;;;;;4898831;29;20056;-73
2022/12/29 01:50:34;;;;;;;6.15;4.32;;;;;;;;;;4895620;29;20077;-73
2022/12/29 01:53:02;;;;;;;6.75;5.70;;;;;;;;;;4883390;29;20067;-73
2022/12/29 01:55:29;;;;;;;6.50;5.03;;;;;;;;;;4900735;29;20060;-74
2022/12/29 01:57:57;;;;;;;6.40;4.60;;;;;;;;;;4900726;29;20406;-74
2022/12/29 02:00:23;;;;;;;7.10;5.25;;;;;;;;;;4881793;29;20068;-73
2022/12/29 02:02:52;;;;;;;8.80;5.53;;;;;;;;;;4884324;29;20389;-74
2022/12/29 02:05:38;;;;;;;7.10;5.50;;;;;;;;;;4882650;29;20052;-74
2022/12/29 02:08:04;;;;;;;8.43;6.32;;;;;;;;;;4867017;29;20048;-73
2022/12/29 02:10:32;;;;;;;7.65;6.13;;;;;;;;;;4900957;29;20057;-73
2022/12/29 02:12:58;;;;;;;9.98;6.00;;;;;;;;;;4893372;29;20409;-73
2022/12/29 02:15:36;;;;;;;8.20;5.85;;;;;;;;;;4916285;29;20112;-74
2022/12/29 02:18:07;;;;;;;5.72;4.85;;;;;;;;;;4894233;29;20124;-73
2022/12/29 02:20:33;;;;;;;6.00;4.53;;;;;;;;;;4881508;29;20107;-73
2022/12/29 02:23:08;;;;;;;6.80;4.53;;;;;;;;;;4883037;29;20084;-74
2022/12/29 02:25:34;;;;;;;6.13;4.32;;;;;;;;;;4900002;29;20053;-73
2022/12/29 02:28:24;;;;;;;7.15;4.30;;;;;;;;;;4867721;29;20061;-73
2022/12/29 02:31:04;;;;;;;5.03;3.70;;;;;;;;;;4882721;29;20088;-74
2022/12/29 02:33:37;;;;;;;6.28;4.45;;;;;;;;;;4900856;29;20659;-73
2022/12/29 02:36:32;;;;;;;5.93;3.58;;;;;;;;;;4899638;29;20059;-73
2022/12/29 02:39:07;;;;;;;5.97;3.47;;;;;;;;;;4895221;29;20398;-73
2022/12/29 02:41:38;;;;;;;4.72;3.20;;;;;;;;;;4898830;29;20148;-73
2022/12/29 02:44:10;;;;;;;5.45;3.60;;;;;;;;;;4883970;29;20516;-73
2022/12/29 02:46:47;;;;;;;5.68;2.85;;;;;;;;;;4897754;29;20060;-74
2022/12/29 02:49:16;;;;;;;5.82;2.88;;;;;;;;;;4885642;29;20062;-73
2022/12/29 02:51:51;;;;;;;4.13;2.75;;;;;;;;;;4898576;29;20457;-74
2022/12/29 02:57:03;;;;;;;5.13;3.00;;;;;;;;;;4898634;29;20052;-73
2022/12/29 02:59:29;;;;;;;5.88;3.10;;;;;;;;;;4913018;29;20067;-73
2022/12/29 03:02:16;;;;;;;5.28;3.20;;;;;;;;;;4915264;29;20091;-73
2022/12/29 03:04:48;;;;;;;5.18;3.00;;;;;;;;;;4914721;29;20052;-73
2022/12/29 03:07:26;;;;;;;3.92;2.45;;;;;;;;;;5032785;27;1265401;-72
2022/12/29 03:10:05;;;;;;;5.38;2.53;;;;;;;;;;5051721;28;20508;-73
2022/12/29 03:18:23;;;;;;;4.93;2.20;;;;;;;;;;5068269;28;20440;-73
2022/12/29 03:20:55;;;;;;;3.90;2.40;;;;;;;;;;5048179;28;20057;-72
2022/12/29 03:23:21;;;;;;;5.85;2.15;;;;;;;;;;5066159;28;20394;-73
2022/12/29 03:25:49;;;;;;;4.20;2.45;;;;;;;;;;5069155;28;20378;-73
2022/12/29 03:28:19;;;;;;;3.75;2.30;;;;;;;;;;5051340;28;20357;-73
2022/12/29 03:30:45;;;;;;;4.50;2.40;;;;;;;;;;5067895;28;20044;-72
2022/12/29 03:33:14;;;;;;;4.47;2.50;;;;;;;;;;5067967;28;20127;-73
2022/12/29 03:35:42;;;;;;;5.40;2.40;;;;;;;;;;5049818;28;20442;-72
2022/12/29 03:38:08;;;;;;;3.45;2.00;;;;;;;;;;5068424;28;20107;-73
2022/12/29 03:40:34;;;;;;;4.45;2.30;;;;;;;;;;5067402;28;20514;-72
2022/12/29 03:43:01;;;;;;;3.22;1.67;;;;;;;;;;5069025;28;20052;-72
2022/12/29 03:45:28;;;;;;;3.15;1.65;;;;;;;;;;5067302;28;20091;-72
2022/12/29 03:47:54;;;;;;;5.13;1.83;;;;;;;;;;5066109;28;20068;-73
2022/12/29 03:50:20;;;;;;;4.88;1.77;;;;;;;;;;5052290;28;20439;-72
2022/12/29 03:52:46;;;;;;;4.20;1.95;;;;;;;;;;5051023;28;20124;-73
2022/12/29 03:55:12;;;;;;;4.10;2.03;;;;;;;;;;5067712;28;20199;-72
2022/12/29 03:57:38;;;;;;;6.65;1.98;;;;;;;;;;5067707;28;20049;-72
2022/12/29 04:00:05;;;;;;;3.15;1.77;;;;;;;;;;5069044;28;20132;-73
2022/12/29 04:02:31;;;;;;;4.20;1.85;;;;;;;;;;5067775;28;20044;-73
2022/12/29 04:04:57;;;;;;;5.15;1.85;;;;;;;;;;5065152;28;20042;-73
2022/12/29 04:07:23;;;;;;;4.65;1.90;;;;;;;;;;5048475;28;20064;-72
2022/12/29 04:09:49;;;;;;;3.38;1.95;;;;;;;;;;5048911;28;20047;-73
2022/12/29 04:12:15;;;;;;;4.80;2.15;;;;;;;;;;5047294;28;20045;-73
2022/12/29 04:14:41;;;;;;;4.82;2.28;;;;;;;;;;5053465;28;20124;-72
2022/12/29 04:17:07;;;;;;;2.88;2.03;;;;;;;;;;5062105;28;20052;-73
2022/12/29 04:19:33;;;;;;;5.38;2.05;;;;;;;;;;5054930;28;20386;-72
2022/12/29 04:21:59;;;;;;;7.72;1.70;;;;;;;;;;5053499;28;20037;-72
2022/12/29 04:24:25;;;;;;;4.97;2.05;;;;;;;;;;5055006;28;20075;-73
2022/12/29 04:26:51;;;;;;;4.18;1.85;;;;;;;;;;5036650;28;20045;-72
2022/12/29 04:29:17;;;;;;;5.18;1.77;;;;;;;;;;5053531;28;20044;-72
2022/12/29 04:31:43;;;;;;;4.60;2.00;;;;;;;;;;5053472;28;20052;-73
2022/12/29 04:34:09;;;;;;;5.18;1.63;;;;;;;;;;5053463;28;20124;-72
2022/12/29 04:36:35;;;;;;;5.22;1.85;;;;;;;;;;5054583;28;20080;-72
2022/12/29 04:39:01;;;;;;;4.82;1.63;;;;;;;;;;5053860;28;20029;-72
2022/12/29 04:41:27;;;;;;;5.82;1.88;;;;;;;;;;5050764;28;20183;-72
2022/12/29 04:43:54;;;;;;;4.18;1.55;;;;;;;;;;5036819;28;20132;-72
2022/12/29 04:46:20;;;;;;;6.28;1.67;;;;;;;;;;5034516;28;20060;-74
2022/12/29 04:48:46;;;;;;;4.88;1.75;;;;;;;;;;5053336;28;20397;-72
2022/12/29 04:51:12;;;;;;;6.05;1.65;;;;;;;;;;5054418;28;20051;-72
2022/12/29 04:53:38;;;;;;;5.80;2.00;;;;;;;;;;5053375;28;20045;-72
2022/12/29 04:56:04;;;;;;;4.32;1.50;;;;;;;;;;5019590;28;20049;-72
2022/12/29 04:58:30;;;;;;;8.43;1.77;;;;;;;;;;5046556;28;20171;-72
2022/12/29 05:00:56;;;;;;;6.40;1.80;;;;;;;;;;5053000;28;20076;-72
2022/12/29 05:03:22;;;;;;;6.65;1.77;;;;;;;;;;5053131;28;20432;-72
2022/12/29 05:05:48;;;;;;;5.80;1.70;;;;;;;;;;5036514;28;20053;-73
2022/12/29 05:08:14;;;;;;;9.60;2.00;;;;;;;;;;5054319;28;20041;-73
2022/12/29 05:10:40;;;;;;;8.27;2.42;;;;;;;;;;5052919;28;20059;-72
2022/12/29 05:13:06;;;;;;;10.20;1.92;;;;;;;;;;5053007;28;20084;-73
2022/12/29 05:15:32;;;;;;;10.52;2.10;;;;;;;;;;5052887;28;20533;-72
2022/12/29 05:17:58;;;;;;;11.10;2.58;;;;;;;;;;5052578;28;20148;-72
2022/12/29 05:20:24;;;;;;;8.25;2.22;;;;;;;;;;5052628;28;20152;-72
2022/12/29 05:22:50;;;;;;;10.82;2.22;;;;;;;;;;5052247;28;20041;-72
2022/12/29 05:25:16;;;;;;;5.35;1.77;;;;;;;;;;5042969;28;20045;-73
2022/12/29 05:27:42;;;;;;;12.52;2.63;;;;;;;;;;5052563;28;20049;-73
2022/12/29 05:30:09;;;;;;;9.52;2.08;;;;;;;;;;5052391;28;20067;-73
2022/12/29 05:32:35;;;;;;;8.50;2.15;;;;;;;;;;5052368;28;20105;-73
2022/12/29 05:35:01;;;;;;;8.30;1.65;;;;;;;;;;5052230;28;20037;-72
2022/12/29 05:37:27;;;;;;;8.30;2.05;;;;;;;;;;5052262;28;20045;-73
2022/12/29 05:39:53;;;;;;;4.68;1.75;;;;;;;;;;5035559;28;20098;-72
2022/12/29 05:42:19;;;;;;;6.38;1.90;;;;;;;;;;5034471;28;20091;-73
2022/12/29 05:44:45;;;;;;;10.18;2.35;;;;;;;;;;5034492;28;20068;-73
2022/12/29 05:47:11;;;;;;;8.60;2.13;;;;;;;;;;5049993;28;20056;-72
2022/12/29 05:49:37;;;;;;;7.93;2.17;;;;;;;;;;5050167;28;20045;-72
2022/12/29 05:52:03;;;;;;;7.63;1.90;;;;;;;;;;5034103;28;20386;-74
2022/12/29 05:54:29;;;;;;;6.88;2.08;;;;;;;;;;5032361;28;20080;-73
2022/12/29 05:56:55;;;;;;;10.30;2.38;;;;;;;;;;5037196;28;20481;-73
2022/12/29 05:59:21;;;;;;;11.02;2.30;;;;;;;;;;5052921;28;20432;-73
2022/12/29 06:01:47;;;;;;;10.60;2.20;;;;;;;;;;5051973;28;20099;-73
2022/12/29 06:04:13;;;;;;;7.97;2.00;;;;;;;;;;5053444;28;20099;-73
2022/12/29 06:06:40;;;;;;;10.88;2.30;;;;;;;;;;5051681;28;20057;-74
2022/12/29 06:09:06;;;;;;;10.13;2.40;;;;;;;;;;5035340;28;20052;-74
2022/12/29 06:11:32;;;;;;;12.10;2.83;;;;;;;;;;5053161;28;20131;-73
2022/12/29 06:13:58;;;;;;;9.40;2.83;;;;;;;;;;5052607;28;20179;-73
2022/12/29 06:16:24;;;;;;;8.57;2.10;;;;;;;;;;5049419;28;20116;-74
2022/12/29 06:18:50;;;;;;;9.60;2.42;;;;;;;;;;5049875;28;20049;-73
2022/12/29 06:21:16;;;;;;;9.55;2.25;;;;;;;;;;5050860;28;20128;-73
2022/12/29 06:23:42;;;;;;;7.07;1.92;;;;;;;;;;5053244;28;20458;-73
2022/12/29 06:26:08;;;;;;;13.88;2.95;;;;;;;;;;5052620;28;20045;-73
2022/12/29 06:28:34;;;;;;;9.93;2.28;;;;;;;;;;5051863;28;20123;-74
2022/12/29 06:31:02;;;;;;;7.97;1.95;;;;;;;;;;5034669;28;20477;-74
2022/12/29 06:33:28;;;;;;;9.70;2.10;;;;;;;;;;5053094;28;20040;-74
2022/12/29 06:35:54;;;;;;;10.65;2.53;;;;;;;;;;5051685;28;20041;-74
2022/12/29 06:38:20;;;;;;;11.00;2.83;;;;;;;;;;5051785;28;20481;-74
2022/12/29 06:40:46;;;;;;;15.15;2.85;;;;;;;;;;5051660;28;20048;-73
2022/12/29 06:43:13;;;;;;;14.13;2.58;;;;;;;;;;5051499;28;20052;-73
2022/12/29 06:45:40;;;;;;;13.68;2.45;;;;;;;;;;5051156;28;20052;-73
2022/12/29 06:48:06;;;;;;;9.20;2.35;;;;;;;;;;5050858;28;20045;-74
2022/12/29 06:50:32;;;;;;;8.20;2.45;;;;;;;;;;5031389;28;20064;-73
2022/12/29 06:52:58;;;;;;;14.82;2.80;;;;;;;;;;5052350;28;20033;-73
2022/12/29 06:55:24;;;;;;;12.50;2.60;;;;;;;;;;5052116;28;20185;-74
2022/12/29 06:57:50;;;;;;;16.85;2.53;;;;;;;;;;5052514;28;20037;-73
2022/12/29 07:00:17;;;;;;;11.93;2.45;;;;;;;;;;5050882;28;20048;-74
2022/12/29 07:02:43;;;;;;;15.88;3.22;;;;;;;;;;5034435;28;20049;-73
2022/12/29 07:05:10;;;;;;;13.80;2.65;;;;;;;;;;5050960;28;20045;-73
2022/12/29 07:07:36;;;;;;;13.00;2.67;;;;;;;;;;5052410;28;20501;-73
2022/12/29 07:10:02;;;;;;;13.18;2.53;;;;;;;;;;5050833;28;20048;-73
2022/12/29 07:12:28;;;;;;;15.73;2.35;;;;;;;;;;5052632;28;20076;-74
2022/12/29 07:14:54;;;;;;;11.60;2.50;;;;;;;;;;5050999;28;20041;-74
2022/12/29 07:17:20;;;;;;;15.30;3.83;;;;;;;;;;5046778;28;20037;-73
2022/12/29 07:19:46;;;;;;;15.80;2.47;;;;;;;;;;5031085;28;20505;-73
2022/12/29 07:22:12;;;;;;;13.35;2.67;;;;;;;;;;5031892;28;20042;-74
2022/12/29 07:24:38;;;;;;;9.15;2.80;;;;;;;;;;5032473;28;20042;-73
2022/12/29 07:27:04;;;;;;;11.93;2.90;;;;;;;;;;5030768;28;20094;-73
2022/12/29 07:29:30;;;;;;;9.82;2.20;;;;;;;;;;5030891;28;20157;-73
2022/12/29 07:31:56;;;;;;;14.38;2.78;;;;;;;;;;5032226;28;20053;-74
2022/12/29 07:34:22;;;;;;;12.20;2.95;;;;;;;;;;5032414;28;20060;-74
2022/12/29 07:36:48;;;;;;;14.68;2.67;;;;;;;;;;5032160;28;20057;-74
2022/12/29 07:39:14;;;;;;;12.93;2.85;;;;;;;;;;5032241;28;20115;-74
2022/12/29 07:41:40;;;;;;;10.35;2.25;;;;;;;;;;5028469;28;20421;-74
2022/12/29 07:44:06;;;;;;;14.15;2.58;;;;;;;;;;5029848;28;20048;-73
2022/12/29 07:46:32;;;;;;;11.27;2.63;;;;;;;;;;5030675;28;20056;-73
2022/12/29 07:48:58;;;;;;;11.13;2.15;;;;;;;;;;5028432;28;20449;-73
2022/12/29 07:51:24;;;;;;;7.65;2.17;;;;;;;;;;5029812;28;20049;-73
2022/12/29 07:53:50;;;;;;;8.30;2.10;;;;;;;;;;5035281;28;20047;-73
2022/12/29 07:56:16;;;;;;;10.85;2.60;;;;;;;;;;5014943;28;20095;-73
2022/12/29 07:58:42;;;;;;;14.82;2.92;;;;;;;;;;5035408;28;20096;-73
2022/12/29 08:01:08;;;;;;;10.40;2.50;;;;;;;;;;5035056;28;20044;-73
2022/12/29 08:03:36;;;;;;;12.38;3.20;;;;;;;;;;5034052;28;20445;-73
2022/12/29 08:06:02;;;;;;;9.75;2.63;;;;;;;;;;5033975;28;20062;-73
2022/12/29 08:08:28;;;;;;;9.45;2.53;;;;;;;;;;5035633;28;20077;-73
2022/12/29 08:10:54;;;;;;;12.30;2.45;;;;;;;;;;5034274;28;20072;-73
2022/12/29 08:13:20;;;;;;;12.38;2.72;;;;;;;;;;5035819;28;20823;-73
2022/12/29 08:15:46;;;;;;;13.65;3.15;;;;;;;;;;5035484;28;20320;-73
2022/12/29 08:18:12;;;;;;;10.75;2.35;;;;;;;;;;5044089;28;20170;-73
2022/12/29 08:20:38;;;;;;;11.75;2.63;;;;;;;;;;5053026;28;20051;-73
2022/12/29 08:23:04;;;;;;;11.40;2.35;;;;;;;;;;5053999;28;20045;-73
2022/12/29 08:25:30;;;;;;;12.85;3.00;;;;;;;;;;5036719;28;20401;-73
2022/12/29 08:27:56;;;;;;;10.90;2.60;;;;;;;;;;5033856;28;20033;-73
2022/12/29 08:30:23;;;;;;;12.07;2.85;;;;;;;;;;5033858;28;20473;-73
2022/12/29 08:32:49;;;;;;;11.48;3.00;;;;;;;;;;5034978;28;20092;-73
2022/12/29 08:35:15;;;;;;;15.55;2.88;;;;;;;;;;5034257;28;20045;-73
2022/12/29 08:37:41;;;;;;;12.55;2.78;;;;;;;;;;5033311;28;20045;-73
2022/12/29 08:40:07;;;;;;;17.67;2.85;;;;;;;;;;5017121;28;20041;-73
2022/12/29 08:42:34;;;;;;;21.77;3.55;;;;;;;;;;5034917;28;20485;-73
2022/12/29 08:45:00;;;;;;;17.80;2.78;;;;;;;;;;5035157;28;20089;-73
2022/12/29 08:47:26;;;;;;;18.92;3.40;;;;;;;;;;5034829;28;20068;-73
2022/12/29 08:49:52;;;;;;;17.77;4.05;;;;;;;;;;5035029;28;20569;-73
2022/12/29 08:52:18;;;;;;;15.57;3.17;;;;;;;;;;5016797;28;20096;-73
2022/12/29 08:54:44;;;;;;;16.67;3.45;;;;;;;;;;5016937;28;20049;-72
2022/12/29 08:57:10;;;;;;;16.58;3.13;;;;;;;;;;5035046;28;20059;-73
2022/12/29 08:59:36;;;;;;;14.15;3.08;;;;;;;;;;5034821;28;20076;-73
2022/12/29 09:02:02;;;;;;;14.98;2.92;;;;;;;;;;5034349;28;20131;-73
2022/12/29 09:04:28;;;;;;;19.48;3.30;;;;;;;;;;5033295;28;20375;-73
2022/12/29 09:06:54;;;;;;;13.15;2.58;;;;;;;;;;5034072;28;20064;-73
2022/12/29 09:09:21;;;;;;;16.98;3.17;;;;;;;;;;5033330;28;20056;-73
2022/12/29 09:11:47;;;;;;;14.00;3.63;;;;;;;;;;5032905;28;20053;-73
2022/12/29 09:14:13;;;;;;;16.58;3.42;;;;;;;;;;5016509;28;20046;-73
2022/12/29 09:19:25;;;;;;;16.25;3.20;;;;;;;;;;5034369;28;20116;-73
2022/12/29 09:21:51;;;;;;;22.17;3.92;;;;;;;;;;5032677;28;20053;-72
2022/12/29 09:24:17;;;;;;;18.95;3.45;;;;;;;;;;5032774;28;20073;-73
2022/12/29 09:26:43;;;;;;;16.08;3.25;;;;;;;;;;5016028;28;20084;-72
2022/12/29 09:29:09;;;;;;;22.38;4.10;;;;;;;;;;5032375;28;20526;-73
2022/12/29 09:31:35;;;;;;;17.73;3.60;;;;;;;;;;5033541;28;20096;-73
2022/12/29 09:34:01;;;;;;;15.30;2.85;;;;;;;;;;5034003;28;20041;-72
2022/12/29 09:36:27;;;;;;;18.50;3.58;;;;;;;;;;5032514;28;20091;-73
2022/12/29 09:38:54;;;;;;;10.77;2.83;;;;;;;;;;5032528;28;20406;-72
2022/12/29 09:41:27;;;;;;;14.70;2.90;;;;;;;;;;5015601;28;20041;-72
2022/12/29 09:44:00;;;;;;;16.60;2.88;;;;;;;;;;5032412;28;20049;-72
2022/12/29 09:46:27;;;;;;;11.07;2.35;;;;;;;;;;5046811;28;20077;-72
2022/12/29 09:49:04;;;;;;;15.88;3.40;;;;;;;;;;5053158;28;20048;-72
2022/12/29 09:51:31;;;;;;;14.32;2.88;;;;;;;;;;5053120;28;20131;-72
2022/12/29 09:54:00;;;;;;;13.57;2.92;;;;;;;;;;5052125;28;20370;-72
2022/12/29 09:56:27;;;;;;;12.77;2.67;;;;;;;;;;5053074;28;20131;-72
2022/12/29 09:58:56;;;;;;;12.88;2.92;;;;;;;;;;5052080;28;20140;-72
2022/12/29 10:01:37;;;;;;;13.88;2.55;;;;;;;;;;5052891;28;20489;-73
2022/12/29 10:04:04;;;;;;;14.65;2.72;;;;;;;;;;5052121;28;20045;-72
2022/12/29 10:06:36;;;;;;;9.00;2.45;;;;;;;;;;5051930;28;20381;-73
2022/12/29 10:09:09;;;;;;;11.35;2.42;;;;;;;;;;5052662;28;20455;-72
2022/12/29 10:11:35;;;;;;;11.55;2.58;;;;;;;;;;5053430;28;20116;-72
2022/12/29 10:14:10;;;;;;;14.15;2.88;;;;;;;;;;5052226;28;20115;-73
2022/12/29 10:16:51;;;;;;;9.95;2.30;;;;;;;;;;5051869;28;20041;-72
2022/12/29 10:19:20;;;;;;;13.02;2.80;;;;;;;;;;5052163;28;20083;-72
2022/12/29 10:21:46;;;;;;;13.40;2.95;;;;;;;;;;5035224;28;20056;-72
2022/12/29 10:24:13;;;;;;;14.98;2.60;;;;;;;;;;5052106;28;20128;-72
2022/12/29 10:26:43;;;;;;;10.55;2.63;;;;;;;;;;5053022;28;20137;-72
2022/12/29 10:29:12;;;;;;;13.05;2.53;;;;;;;;;;5053253;28;20132;-72
2022/12/29 10:31:44;;;;;;;11.55;2.25;;;;;;;;;;5052985;28;20094;-72
2022/12/29 10:34:21;;;;;;;12.50;2.40;;;;;;;;;;5052433;28;20051;-72
2022/12/29 10:36:48;;;;;;;13.93;2.67;;;;;;;;;;5051822;28;20041;-73
2022/12/29 10:39:38;;;;;;;11.95;2.50;;;;;;;;;;5053089;28;20051;-73
2022/12/29 10:42:04;;;;;;;10.07;2.35;;;;;;;;;;5025534;28;20053;-72
2022/12/29 10:44:31;;;;;;;12.45;2.67;;;;;;;;;;5051810;28;20045;-73
2022/12/29 10:47:00;;;;;;;11.75;2.50;;;;;;;;;;5049488;28;20045;-73
2022/12/29 10:49:27;;;;;;;14.98;3.00;;;;;;;;;;5053265;28;20085;-72
2022/12/29 10:51:55;;;;;;;13.18;3.03;;;;;;;;;;5052480;28;20488;-72
2022/12/29 10:54:28;;;;;;;19.95;3.90;;;;;;;;;;5051795;28;20400;-72
2022/12/29 10:57:00;;;;;;;14.10;2.58;;;;;;;;;;5052451;28;20124;-72
2022/12/29 10:59:30;;;;;;;19.42;3.78;;;;;;;;;;5051623;28;20047;-72
2022/12/29 11:02:00;;;;;;;16.33;3.30;;;;;;;;;;5034879;28;20371;-72
2022/12/29 11:04:36;;;;;;;13.77;3.92;;;;;;;;;;5053050;28;20049;-73
2022/12/29 11:07:03;;;;;;;15.13;3.45;;;;;;;;;;5050976;28;20057;-72
2022/12/29 11:09:30;;;;;;;13.80;3.85;;;;;;;;;;5034744;28;20095;-72
2022/12/29 11:11:56;;;;;;;16.25;3.47;;;;;;;;;;5050455;28;20144;-73
2022/12/29 11:14:30;;;;;;;17.45;3.92;;;;;;;;;;5050269;28;20509;-73
2022/12/29 11:17:00;;;;;;;17.90;3.75;;;;;;;;;;5050988;28;20540;-73
2022/12/29 11:19:28;;;;;;;18.15;3.60;;;;;;;;;;5052443;28;20378;-73
2022/12/29 11:21:54;;;;;;;21.42;4.00;;;;;;;;;;5051116;28;20045;-73
2022/12/29 11:24:23;;;;;;;22.27;4.18;;;;;;;;;;5051225;28;20049;-73
2022/12/29 11:26:50;;;;;;;18.63;3.75;;;;;;;;;;5051198;28;20401;-73
2022/12/29 11:29:16;;;;;;;22.27;3.78;;;;;;;;;;5037662;28;20041;-73
2022/12/29 11:31:43;;;;;;;20.55;4.05;;;;;;;;;;5054216;28;20547;-73
2022/12/29 11:34:09;;;;;;;20.85;3.83;;;;;;;;;;5055098;28;20091;-73
2022/12/29 11:36:36;;;;;;;20.40;4.03;;;;;;;;;;5038292;28;20087;-73
2022/12/29 11:39:02;;;;;;;20.77;3.90;;;;;;;;;;5056150;28;20429;-73
2022/12/29 11:41:32;;;;;;;19.67;3.60;;;;;;;;;;5055943;28;20083;-73
2022/12/29 11:44:00;;;;;;;15.40;3.72;;;;;;;;;;5056297;28;20049;-73
2022/12/29 11:46:28;;;;;;;19.92;3.78;;;;;;;;;;5054370;28;20045;-73
2022/12/29 11:48:58;;;;;;;18.08;3.67;;;;;;;;;;5038133;28;20450;-73
2022/12/29 11:51:26;;;;;;;22.35;3.55;;;;;;;;;;5054107;28;20072;-73
2022/12/29 11:53:53;;;;;;;17.25;3.60;;;;;;;;;;5055452;28;20037;-73
2022/12/29 11:56:22;;;;;;;12.60;3.60;;;;;;;;;;5054305;28;20182;-72
2022/12/29 11:58:50;;;;;;;17.23;3.97;;;;;;;;;;5054336;28;20090;-73
2022/12/29 12:01:19;;;;;;;15.82;3.45;;;;;;;;;;5054154;28;20044;-73
2022/12/29 12:04:04;;;;;;;19.13;4.05;;;;;;;;;;5054293;28;20444;-73
2022/12/29 12:06:33;;;;;;;15.55;3.22;;;;;;;;;;5055264;28;20063;-73
2022/12/29 12:09:01;;;;;;;19.35;3.95;;;;;;;;;;5055682;28;20045;-72
2022/12/29 12:11:36;;;;;;;20.98;4.15;;;;;;;;;;5037315;28;20146;-73
2022/12/29 12:14:17;;;;;;;15.77;3.40;;;;;;;;;;5054346;28;20037;-73
2022/12/29 12:16:55;;;;;;;16.25;3.58;;;;;;;;;;5053880;28;20044;-73
2022/12/29 12:19:42;;;;;;;21.92;4.10;;;;;;;;;;5035056;28;20081;-73
2022/12/29 12:22:11;;;;;;;20.17;3.85;;;;;;;;;;5035082;28;20092;-73
2022/12/29 12:24:48;;;;;;;18.60;3.88;;;;;;;;;;5049269;28;20151;-73
2022/12/29 12:27:21;;;;;;;17.60;4.00;;;;;;;;;;5032027;28;20128;-73
2022/12/29 12:29:47;;;;;;;16.77;3.80;;;;;;;;;;5050517;28;20183;-73
2022/12/29 12:32:16;;;;;;;17.45;3.75;;;;;;;;;;5050458;28;20045;-73
2022/12/29 12:34:43;;;;;;;20.15;4.22;;;;;;;;;;5050557;28;20077;-73
2022/12/29 12:37:25;;;;;;;17.25;3.35;;;;;;;;;;5034842;28;20100;-73
2022/12/29 12:40:03;;;;;;;11.32;2.90;;;;;;;;;;5034194;28;20056;-74
2022/12/29 12:42:52;;;;;;;13.90;3.28;;;;;;;;;;5034677;28;20434;-73
2022/12/29 12:45:41;;;;;;;16.10;3.28;;;;;;;;;;5015607;28;20049;-73
2022/12/29 12:48:16;;;;;;;19.27;3.15;;;;;;;;;;5033245;28;20049;-73
2022/12/29 12:51:01;;;;;;;15.73;3.88;;;;;;;;;;5050061;28;20145;-73
2022/12/29 12:54:02;;;;;;;15.60;3.78;;;;;;;;;;5034835;28;20082;-73
2022/12/29 12:56:28;;;;;;;15.65;3.42;;;;;;;;;;4990276;28;20133;-73
2022/12/29 12:58:54;;;;;;;17.33;4.20;;;;;;;;;;5026218;28;20080;-72
2022/12/29 13:01:27;;;;;;;13.95;3.30;;;;;;;;;;5034203;28;20516;-73
2022/12/29 13:04:01;;;;;;;16.42;3.70;;;;;;;;;;5050013;28;20347;-73
2022/12/29 13:06:39;;;;;;;14.10;3.17;;;;;;;;;;5049143;28;20144;-73
2022/12/29 13:09:11;;;;;;;16.13;2.78;;;;;;;;;;5034231;28;20046;-73
2022/12/29 13:11:37;;;;;;;13.75;2.55;;;;;;;;;;5049225;28;20049;-73
2022/12/29 13:14:11;;;;;;;10.43;2.53;;;;;;;;;;5049569;28;20076;-73
2022/12/29 13:16:40;;;;;;;9.48;2.67;;;;;;;;;;5033836;28;20073;-73
2022/12/29 13:19:25;;;;;;;10.52;2.40;;;;;;;;;;5052443;28;20041;-72
2022/12/29 13:21:51;;;;;;;10.05;2.40;;;;;;;;;;5052322;28;20048;-73
2022/12/29 13:24:32;;;;;;;13.23;2.70;;;;;;;;;;5036064;28;20055;-73
2022/12/29 13:27:06;;;;;;;10.70;2.40;;;;;;;;;;5052261;28;20130;-73
2022/12/29 13:29:32;;;;;;;12.98;2.40;;;;;;;;;;5036135;28;20397;-72
2022/12/29 13:32:01;;;;;;;12.80;2.70;;;;;;;;;;5052191;28;20048;-73
2022/12/29 13:34:33;;;;;;;12.43;2.97;;;;;;;;;;5052311;28;20124;-73
2022/12/29 13:37:04;;;;;;;10.30;3.08;;;;;;;;;;5053629;28;20045;-73
2022/12/29 13:39:43;;;;;;;10.75;2.33;;;;;;;;;;5052432;28;20047;-73
2022/12/29 13:42:10;;;;;;;11.23;2.42;;;;;;;;;;5052163;28;20098;-73
2022/12/29 13:44:59;;;;;;;12.90;2.60;;;;;;;;;;5053556;28;20044;-73
2022/12/29 13:47:25;;;;;;;11.60;2.42;;;;;;;;;;5034018;28;20049;-73
2022/12/29 13:49:52;;;;;;;11.23;2.20;;;;;;;;;;5052991;28;20044;-73
2022/12/29 13:52:24;;;;;;;12.20;2.92;;;;;;;;;;5051521;28;20072;-73
2022/12/29 13:55:02;;;;;;;13.40;2.63;;;;;;;;;;5052329;28;20490;-73
2022/12/29 13:57:31;;;;;;;9.02;2.58;;;;;;;;;;5033837;28;20040;-73
2022/12/29 14:00:04;;;;;;;12.98;2.40;;;;;;;;;;5035765;28;20056;-73
2022/12/29 14:02:45;;;;;;;12.27;2.47;;;;;;;;;;5053350;28;20063;-73
2022/12/29 14:05:20;;;;;;;14.63;2.92;;;;;;;;;;5051813;28;20128;-73
2022/12/29 14:07:47;;;;;;;14.02;2.65;;;;;;;;;;5035443;28;20075;-73
2022/12/29 14:10:30;;;;;;;10.32;3.38;;;;;;;;;;5051672;28;20056;-73
2022/12/29 14:13:02;;;;;;;11.07;2.60;;;;;;;;;;5050875;28;20075;-73
2022/12/29 14:15:28;;;;;;;11.02;2.38;;;;;;;;;;5051227;28;20048;-73
2022/12/29 14:18:03;;;;;;;12.38;2.30;;;;;;;;;;5051585;28;20052;-73
2022/12/29 14:20:29;;;;;;;13.13;2.63;;;;;;;;;;5034815;28;20132;-73
2022/12/29 14:23:15;;;;;;;10.63;2.53;;;;;;;;;;5051838;28;20426;-73
2022/12/29 14:25:54;;;;;;;9.43;2.65;;;;;;;;;;5034814;28;20052;-73
2022/12/29 14:28:39;;;;;;;10.98;2.22;;;;;;;;;;5052918;28;20492;-73
2022/12/29 14:31:25;;;;;;;10.98;2.42;;;;;;;;;;5052630;28;20052;-73
2022/12/29 14:34:06;;;;;;;11.13;2.50;;;;;;;;;;5051737;28;20040;-74
2022/12/29 14:36:39;;;;;;;12.20;2.72;;;;;;;;;;5034807;28;20160;-73
2022/12/29 14:39:25;;;;;;;11.50;2.78;;;;;;;;;;5052809;28;20489;-73
2022/12/29 14:42:03;;;;;;;10.75;2.60;;;;;;;;;;5051132;28;20076;-73
2022/12/29 14:44:29;;;;;;;9.88;2.53;;;;;;;;;;5051352;28;20051;-73
2022/12/29 14:46:58;;;;;;;14.23;2.70;;;;;;;;;;5052466;28;20056;-73
2022/12/29 14:49:32;;;;;;;11.20;2.45;;;;;;;;;;5052742;28;20068;-73
2022/12/29 14:52:16;;;;;;;12.65;2.45;;;;;;;;;;5050820;28;20049;-73
2022/12/29 14:54:44;;;;;;;10.73;2.50;;;;;;;;;;5051269;28;20088;-73
2022/12/29 14:57:14;;;;;;;12.73;2.80;;;;;;;;;;5052284;28;20137;-73
2022/12/29 14:59:41;;;;;;;15.82;3.42;;;;;;;;;;5051372;28;20041;-73
2022/12/29 15:02:16;;;;;;;13.85;2.75;;;;;;;;;;5052257;28;20607;-73
2022/12/29 15:04:43;;;;;;;14.07;2.42;;;;;;;;;;5051121;28;20148;-73
2022/12/29 15:07:10;;;;;;;10.32;2.60;;;;;;;;;;5051903;28;20061;-73
2022/12/29 15:09:43;;;;;;;17.05;3.47;;;;;;;;;;5052483;28;20072;-74
2022/12/29 15:12:28;;;;;;;11.43;2.83;;;;;;;;;;5049869;28;20049;-73
2022/12/29 15:14:54;;;;;;;15.65;3.05;;;;;;;;;;5050425;28;20045;-73
2022/12/29 15:17:30;;;;;;;11.98;2.85;;;;;;;;;;5051764;28;20033;-73
2022/12/29 15:19:58;;;;;;;12.38;2.50;;;;;;;;;;5034441;28;20148;-74
2022/12/29 15:22:24;;;;;;;12.57;2.97;;;;;;;;;;5051997;28;20045;-74
2022/12/29 15:24:52;;;;;;;20.50;3.17;;;;;;;;;;5052108;28;20048;-73